SETU/TUA METAR and TAF weather

Enter ICAO airport designator
Station Type Date Time Source
SETU METAR 2020/06/05 13:00 UTC NOAA

SETU 051300Z 21003KT 8000 -DZ FEW010 OVC020 10/08 Q1035


Station Type Date Time Source
SETU Decoded METAR 2020/06/05 13:00 UTC NOAA

Tulcan / El Rosal, Ecuador (SETU) 00-49N 077-42W
Jun 05, 2020 - 09:00 AM EDT / 2020.06.05 1300 UTC
Wind: from the SSW (210 degrees) at 3 MPH (3 KT):0
Visibility: 4 mile(s):0
Sky conditions: overcast
Weather: light drizzle
Temperature: 50 F (10 C)
Dew Point: 46 F (8 C)
Relative Humidity: 87%
Pressure (altimeter): 30.56 in. Hg (1035 hPa)
ob: SETU 051300Z 21003KT 8000 -DZ FEW010 OVC020 10/08 Q1035
cycle: 13

Station Type Date Time Source
SETU TAF UTC NOAA

Error!

Example: see airport list